Terminal Aerodrome Forecast
Issued by NWS

Home | Current Version | Previous Version | Graphics & Text | Print | Product List | Glossary On
Versions: 1 2 3 4 5 6 7 8 9 10 11 12 13 14 15 16 17 18 19 20
637
FTUS43 KPAH 231424 AAA
TAFCGI
TAF AMD
KCGI 231424Z 2314/2412 16006KT 6SM -SHRA SCT020 OVC040
      TEMPO 2314/2318 3SM SHRA BR OVC015
     FM231800 30010G15KT P6SM VCSH SCT015 OVC030
     FM232100 33010G18KT P6SM VCSH BKN015
     FM240000 34010G15KT P6SM SCT025 BKN050
     FM240600 34007KT P6SM SCT050 BKN250=

USA.gov is the U.S. government's official web portal to all federal, state and local government web resources and services.